Time;durP1;ratioP1;P1;durP2;ratioP2;P2;SDS_P1;SDS_P2;PMS_P1;PMS_P2;Temp;Humidity;BMP_temperature;BMP_pressure;BME280_temperature;BME280_humidity;BME280_pressure;Samples;Min_cycle;Max_cycle;Signal;HPM_P1;HPM_P2
2024/01/30 00:01:44;;;;;;;14.90;6.50;;;;;;;1.15;89.63;101048.31;104050;1295;60552;-37
2024/01/30 00:04:10;;;;;;;13.40;6.00;;;;;;;1.13;89.79;101044.36;104132;1285;60755;-31
2024/01/30 00:06:36;;;;;;;12.80;5.90;;;;;;;1.09;90.34;101045.73;104060;1286;61318;-33
2024/01/30 00:09:01;;;;;;;13.80;6.10;;;;;;;1.07;90.54;101046.88;104030;1284;60562;-31
2024/01/30 00:11:28;;;;;;;12.90;5.80;;;;;;;1.05;90.44;101045.92;104086;1299;60578;-33
2024/01/30 00:13:56;;;;;;;14.00;4.70;;;;;;;1.04;90.90;101044.58;104147;1285;60549;-34
2024/01/30 00:16:23;;;;;;;14.90;5.60;;;;;;;1.01;91.08;101037.75;104064;1285;60459;-33
2024/01/30 00:18:52;;;;;;;19.00;6.00;;;;;;;0.95;91.96;101034.39;104109;1285;60437;-31
2024/01/30 00:21:19;;;;;;;13.20;5.60;;;;;;;0.99;91.62;101034.84;104058;1285;60559;-33
2024/01/30 00:23:45;;;;;;;11.80;5.30;;;;;;;1.01;92.46;101038.98;104126;1284;60604;-31
2024/01/30 00:26:11;;;;;;;14.10;6.10;;;;;;;0.97;92.24;101041.54;104072;1285;60551;-31
2024/01/30 00:28:37;;;;;;;;;;;;;;;0.95;92.05;101040.02;104144;1293;60481;-33
2024/01/30 00:31:04;;;;;;;13.00;5.60;;;;;;;0.95;92.29;101036.55;104005;1298;60506;-32
2024/01/30 00:33:30;;;;;;;19.90;6.10;;;;;;;0.94;92.75;101031.82;104102;1286;60490;-33
2024/01/30 00:35:56;;;;;;;;;;;;;;;0.96;92.57;101035.06;104092;1285;60469;-32
2024/01/30 00:38:22;;;;;;;14.60;6.00;;;;;;;0.92;92.58;101038.48;104114;1296;60564;-31
2024/01/30 00:40:48;;;;;;;13.90;5.20;;;;;;;0.89;92.66;101041.64;103999;1288;60479;-36
2024/01/30 00:43:13;;;;;;;;;;;;;;;0.92;92.73;101045.51;104231;1284;60987;-37
2024/01/30 00:45:39;;;;;;;14.20;5.20;;;;;;;0.87;93.09;101041.04;104059;1299;60523;-32
2024/01/30 00:48:05;;;;;;;11.80;5.60;;;;;;;0.87;93.02;101042.26;104236;1285;60632;-31
2024/01/30 00:50:30;;;;;;;16.30;5.70;;;;;;;0.85;93.11;101040.97;104151;1293;60943;-33
2024/01/30 00:52:56;;;;;;;11.20;4.70;;;;;;;0.86;92.82;101039.69;104142;1300;61625;-31
2024/01/30 00:55:22;;;;;;;13.30;5.60;;;;;;;0.86;93.30;101042.52;104073;1284;67951;-31
2024/01/30 00:57:48;;;;;;;13.70;6.20;;;;;;;0.93;93.03;101042.80;104007;1284;60987;-33
2024/01/30 01:00:16;;;;;;;19.30;8.00;;;;;;;0.95;92.90;101041.28;104125;1296;61257;-33
2024/01/30 01:02:43;;;;;;;18.00;7.30;;;;;;;0.95;92.97;101038.12;104166;1285;61317;-32
2024/01/30 01:05:08;;;;;;;14.30;6.40;;;;;;;0.96;93.23;101032.79;104179;1283;60953;-32
2024/01/30 01:07:34;;;;;;;15.40;6.60;;;;;;;0.95;93.18;101035.62;104202;1284;60964;-31
2024/01/30 01:10:00;;;;;;;15.50;8.10;;;;;;;0.96;93.22;101040.35;104171;1292;61426;-37
2024/01/30 01:12:25;;;;;;;14.20;5.90;;;;;;;0.98;92.89;101036.86;104143;1293;60711;-32
2024/01/30 01:14:51;;;;;;;11.90;6.40;;;;;;;0.95;93.39;101032.09;104060;1293;60838;-32
2024/01/30 01:17:18;;;;;;;16.00;7.30;;;;;;;0.95;93.55;101033.35;104150;1292;60808;-30
2024/01/30 01:19:44;;;;;;;12.60;5.10;;;;;;;0.94;93.77;101030.58;104078;1285;60764;-32
2024/01/30 01:22:10;;;;;;;15.80;5.80;;;;;;;0.92;93.64;101032.09;104303;1301;60956;-32
2024/01/30 01:24:35;;;;;;;;;;;;;;;0.91;93.67;101035.33;104109;1285;61302;-30
2024/01/30 01:27:01;;;;;;;9.80;5.00;;;;;;;0.89;93.86;101027.34;104035;1300;61300;-34
2024/01/30 01:29:28;;;;;;;13.80;5.50;;;;;;;0.85;93.84;101021.06;104107;1285;61080;-30
2024/01/30 01:31:55;;;;;;;10.70;5.10;;;;;;;0.85;93.82;101021.40;103890;1281;61285;-31
2024/01/30 01:34:21;;;;;;;12.90;5.30;;;;;;;0.84;93.89;101016.35;104076;1285;74053;-31
2024/01/30 01:39:53;;;;;;;18.70;5.90;;;;;;;0.83;95.03;101014.67;103053;1289;598936;-30
2024/01/30 01:42:19;;;;;;;12.70;5.20;;;;;;;0.82;94.98;101011.24;103037;1294;60094;-31
2024/01/30 01:44:44;;;;;;;14.80;6.20;;;;;;;0.80;94.99;101013.27;103161;1291;59381;-31
2024/01/30 01:47:10;;;;;;;15.70;5.80;;;;;;;0.80;94.59;101019.60;103142;1290;59463;-31
2024/01/30 01:49:36;;;;;;;18.30;8.00;;;;;;;0.81;94.95;101020.97;102910;1291;59410;-31
2024/01/30 02:34:11;;;;;;;26.80;10.70;;;;;;;0.20;99.22;101006.84;103383;1286;612619;-29
2024/01/30 02:36:37;;;;;;;27.40;10.40;;;;;;;0.34;99.26;101002.33;103479;1287;176826;-31
2024/01/30 02:39:03;;;;;;;;;;;;;;;0.34;98.93;101005.13;103849;1282;59377;-31
2024/01/30 02:41:29;;;;;;;52.30;16.90;;;;;;;0.33;99.28;101001.87;103748;1283;59390;-31
2024/01/30 02:43:54;;;;;;;41.00;15.40;;;;;;;0.34;99.35;101003.21;103721;1283;59365;-30
2024/01/30 02:46:20;;;;;;;23.70;9.60;;;;;;;0.33;99.29;100998.33;103686;1283;59380;-31
2024/01/30 02:48:45;;;;;;;24.90;9.70;;;;;;;0.33;99.61;100996.73;103742;1285;59371;-31
2024/01/30 02:51:11;;;;;;;21.50;9.70;;;;;;;0.36;99.40;100998.98;103872;1285;59352;-33
2024/01/30 02:53:37;;;;;;;;;;;;;;;0.40;99.40;101002.47;104119;1282;59346;-31
2024/01/30 02:56:03;;;;;;;16.90;8.40;;;;;;;0.41;99.08;101004.86;103876;1282;59289;-30
2024/01/30 02:58:29;;;;;;;;;;;;;;;0.40;99.32;101013.56;103231;1282;1002172;-32
2024/01/30 03:00:54;;;;;;;32.90;13.00;;;;;;;0.37;99.44;101009.38;103654;1281;60023;-31
2024/01/30 03:03:20;;;;;;;22.90;10.50;;;;;;;0.40;99.14;101007.41;102890;1288;1002494;-32
2024/01/30 03:05:46;;;;;;;18.70;6.80;;;;;;;0.44;98.47;101013.70;103823;1299;59769;-31
2024/01/30 03:08:12;;;;;;;18.50;7.30;;;;;;;0.47;98.28;101007.33;103903;1285;59646;-31
2024/01/30 03:10:38;;;;;;;15.20;7.20;;;;;;;0.47;98.93;101006.44;104029;1282;59846;-33
2024/01/30 03:13:03;;;;;;;31.20;12.90;;;;;;;0.50;98.58;101004.20;103872;1285;71174;-33
2024/01/30 03:15:29;;;;;;;19.70;9.20;;;;;;;0.50;98.20;101006.83;103895;1285;59960;-31
2024/01/30 03:17:55;;;;;;;20.70;8.40;;;;;;;0.48;97.95;101009.77;103932;1298;59864;-30
2024/01/30 03:20:20;;;;;;;20.60;10.00;;;;;;;0.44;98.50;101003.65;103847;1290;60509;-30
2024/01/30 03:22:46;;;;;;;20.10;9.30;;;;;;;0.41;98.46;101006.27;103832;1281;59765;-31
2024/01/30 03:25:11;;;;;;;18.90;7.90;;;;;;;0.41;98.39;101009.30;103988;1285;59827;-31
2024/01/30 03:27:37;;;;;;;16.10;7.10;;;;;;;0.41;98.75;101008.41;103958;1298;60488;-33
2024/01/30 03:30:03;;;;;;;25.60;9.50;;;;;;;0.43;98.30;101007.72;103934;1282;60056;-31
2024/01/30 03:32:29;;;;;;;20.50;8.10;;;;;;;0.45;98.18;101012.73;103906;1282;61009;-36
2024/01/30 03:34:55;;;;;;;17.20;7.50;;;;;;;0.45;98.46;101007.47;104008;1286;60916;-31
2024/01/30 03:37:20;;;;;;;15.60;7.30;;;;;;;0.43;98.63;101005.81;103821;1298;60738;-30
2024/01/30 03:39:46;;;;;;;13.50;7.20;;;;;;;0.43;98.65;101002.61;103938;1285;60965;-32
2024/01/30 03:42:12;;;;;;;13.10;6.40;;;;;;;0.40;98.81;101003.73;103964;1299;60760;-31
2024/01/30 03:44:37;;;;;;;18.90;7.90;;;;;;;0.32;99.15;100995.05;103972;1294;60907;-36
2024/01/30 03:47:03;;;;;;;16.40;7.90;;;;;;;0.28;99.25;100990.00;103942;1283;60827;-31
2024/01/30 03:49:29;;;;;;;21.00;8.30;;;;;;;0.26;99.30;100992.08;103943;1285;68537;-29
2024/01/30 03:51:54;;;;;;;14.90;7.10;;;;;;;0.26;99.29;100991.73;103841;1285;60946;-33
2024/01/30 03:54:20;;;;;;;13.70;6.30;;;;;;;0.27;99.36;100990.40;103884;1295;61443;-32
2024/01/30 03:56:45;;;;;;;18.50;6.20;;;;;;;0.27;99.75;100988.32;103907;1295;60898;-30
2024/01/30 03:59:11;;;;;;;18.80;7.20;;;;;;;0.27;99.37;100992.00;103872;1285;60760;-30
2024/01/30 04:01:37;;;;;;;19.50;7.60;;;;;;;0.22;99.23;100993.00;103901;1282;60639;-32
2024/01/30 04:04:03;;;;;;;13.30;6.40;;;;;;;0.20;99.32;100998.91;104117;1282;59838;-33
2024/01/30 04:06:28;;;;;;;14.10;6.90;;;;;;;0.19;99.42;101001.80;103914;1285;60597;-33
2024/01/30 04:08:54;;;;;;;18.20;7.10;;;;;;;0.21;99.47;101001.83;103799;1288;60946;-33
2024/01/30 04:11:20;;;;;;;14.70;6.70;;;;;;;0.21;99.08;101000.41;103890;1285;60571;-31
2024/01/30 04:13:47;;;;;;;17.90;7.60;;;;;;;0.18;99.45;101000.44;103906;1285;61030;-33
2024/01/30 04:16:25;;;;;;;13.50;7.00;;;;;;;0.17;99.82;101005.07;103933;1285;60526;-31
2024/01/30 04:18:51;;;;;;;16.00;7.90;;;;;;;0.18;99.60;101002.71;103903;1285;72346;-33
2024/01/30 04:21:17;;;;;;;17.80;8.40;;;;;;;0.17;99.94;101001.21;103919;1285;60866;-31
2024/01/30 04:23:43;;;;;;;19.40;7.80;;;;;;;0.16;100.00;101005.13;103772;1285;60859;-33
2024/01/30 04:26:08;;;;;;;18.90;8.40;;;;;;;0.18;100.00;101001.13;103898;1295;60760;-31
2024/01/30 04:28:34;;;;;;;15.90;7.50;;;;;;;0.20;100.00;101000.52;103870;1285;60818;-30
2024/01/30 04:30:59;;;;;;;16.40;8.70;;;;;;;0.19;99.94;100998.99;103205;1299;1002256;-32
2024/01/30 04:33:25;;;;;;;17.10;7.00;;;;;;;0.17;99.94;100998.58;103921;1293;60900;-33
2024/01/30 04:35:51;;;;;;;16.80;6.20;;;;;;;0.16;99.92;100998.44;103906;1288;60968;-31
2024/01/30 04:38:17;;;;;;;11.90;6.00;;;;;;;0.16;99.97;100995.45;103879;1282;60814;-31
2024/01/30 04:40:43;;;;;;;;;;;;;;;0.17;100.00;100996.78;103781;1286;60812;-28
2024/01/30 04:43:09;;;;;;;12.20;6.20;;;;;;;0.20;99.83;100997.36;103968;1299;60869;-32
2024/01/30 04:45:34;;;;;;;15.30;6.30;;;;;;;0.16;99.48;100998.25;103820;1289;60803;-29
2024/01/30 04:48:00;;;;;;;15.10;6.50;;;;;;;0.15;99.54;100998.31;103933;1295;60850;-29
2024/01/30 04:50:26;;;;;;;15.40;6.50;;;;;;;0.15;99.97;100993.94;103753;1299;60872;-30
2024/01/30 04:52:52;;;;;;;16.60;6.50;;;;;;;0.19;99.71;100993.70;103876;1295;60795;-30
2024/01/30 04:55:18;;;;;;;15.70;6.50;;;;;;;0.21;99.91;100999.92;103831;1285;60767;-30
2024/01/30 04:57:43;;;;;;;12.90;6.30;;;;;;;0.24;99.89;101005.23;104014;1301;60879;-32
2024/01/30 05:00:10;;;;;;;16.00;7.60;;;;;;;0.26;99.67;101005.98;103825;1282;60770;-30
2024/01/30 05:02:35;;;;;;;13.50;6.60;;;;;;;0.26;99.79;101012.52;103949;1285;60847;-31
2024/01/30 05:05:01;;;;;;;12.10;6.90;;;;;;;0.26;99.85;101008.10;103935;1285;60798;-31
2024/01/30 05:07:26;;;;;;;16.30;7.10;;;;;;;0.23;99.69;101003.51;103850;1283;60936;-31
2024/01/30 05:09:52;;;;;;;16.60;7.30;;;;;;;0.26;99.78;100999.96;103901;1289;60895;-31
2024/01/30 05:12:18;;;;;;;12.40;6.10;;;;;;;0.24;99.85;101003.45;103967;1285;60866;-31
2024/01/30 05:14:44;;;;;;;14.80;6.80;;;;;;;0.21;99.76;101001.35;103915;1294;61579;-33
2024/01/30 05:17:12;;;;;;;15.30;7.70;;;;;;;0.19;99.84;101005.16;103933;1285;60900;-31
2024/01/30 05:19:38;;;;;;;17.90;8.10;;;;;;;0.16;99.93;101006.39;103757;1282;72658;-31
2024/01/30 05:22:04;;;;;;;;;;;;;;;0.13;100.00;101004.96;103873;1282;60787;-30
2024/01/30 05:24:29;;;;;;;15.20;7.50;;;;;;;0.11;100.00;100998.23;103758;1295;60942;-31
2024/01/30 05:26:55;;;;;;;15.00;6.50;;;;;;;0.12;100.00;100996.58;103876;1285;60890;-29
2024/01/30 05:29:21;;;;;;;18.50;7.40;;;;;;;0.11;100.00;100996.64;103899;1295;60892;-29
2024/01/30 05:31:46;;;;;;;14.40;6.10;;;;;;;0.12;99.95;101000.13;103924;1295;60878;-31
2024/01/30 05:34:12;;;;;;;18.20;7.60;;;;;;;0.13;100.00;101000.59;103933;1283;60906;-31
2024/01/30 05:36:38;;;;;;;18.80;6.90;;;;;;;0.13;99.97;101003.04;104012;1295;61446;-29
2024/01/30 05:39:03;;;;;;;12.80;6.60;;;;;;;0.14;100.00;100999.80;103929;1301;60970;-30
2024/01/30 05:41:29;;;;;;;16.50;6.50;;;;;;;0.14;99.91;101001.77;103924;1285;60901;-31
2024/01/30 05:43:54;;;;;;;15.00;7.20;;;;;;;0.13;100.00;101003.93;103908;1285;60978;-33
2024/01/30 05:46:20;;;;;;;14.70;7.00;;;;;;;0.14;99.76;101005.27;103880;1291;60892;-33
2024/01/30 05:48:45;;;;;;;17.90;6.90;;;;;;;0.14;99.89;100999.08;103907;1299;60852;-31
2024/01/30 05:51:11;;;;;;;14.20;6.60;;;;;;;0.17;99.99;101001.77;103764;1288;60779;-32
2024/01/30 05:53:37;;;;;;;17.60;7.90;;;;;;;0.15;99.95;100998.86;103885;1297;60899;-31
2024/01/30 05:56:03;;;;;;;15.50;7.70;;;;;;;0.14;100.00;101001.39;103875;1281;60709;-33
2024/01/30 05:58:29;;;;;;;14.30;6.80;;;;;;;0.15;100.00;101005.55;103879;1281;60664;-31
2024/01/30 06:00:54;;;;;;;;;;;;;;;0.16;100.00;101006.04;103945;1285;60954;-31
2024/01/30 06:03:20;;;;;;;13.50;6.60;;;;;;;0.12;100.00;101004.16;103822;1285;60843;-29
2024/01/30 06:05:46;;;;;;;15.50;6.80;;;;;;;0.12;100.00;101010.68;103882;1285;60798;-29
2024/01/30 06:08:12;;;;;;;14.20;6.30;;;;;;;0.14;100.00;101012.47;103955;1292;60892;-31
2024/01/30 06:10:38;;;;;;;19.20;7.60;;;;;;;0.10;100.00;101011.14;104090;1298;60876;-32
2024/01/30 06:13:03;;;;;;;13.60;6.60;;;;;;;0.12;100.00;101010.52;103872;1285;61123;-30
2024/01/30 06:15:32;;;;;;;18.70;6.10;;;;;;;0.10;100.00;101015.21;103949;1298;60897;-31
2024/01/30 06:17:58;;;;;;;12.60;6.30;;;;;;;0.08;100.00;101018.16;103919;1282;60895;-32
2024/01/30 06:20:24;;;;;;;15.10;6.40;;;;;;;0.08;100.00;101021.69;103899;1285;60894;-30
2024/01/30 06:22:49;;;;;;;17.80;7.50;;;;;;;0.10;100.00;101022.06;103905;1293;60908;-32
2024/01/30 06:25:16;;;;;;;19.20;8.10;;;;;;;0.10;100.00;101017.48;103884;1285;61377;-31
2024/01/30 06:27:43;;;;;;;13.90;6.80;;;;;;;0.09;100.00;101020.00;103886;1283;60786;-32
2024/01/30 06:30:09;;;;;;;17.10;7.30;;;;;;;0.11;100.00;101021.12;103935;1285;60891;-32
2024/01/30 06:32:35;;;;;;;15.60;6.40;;;;;;;0.11;100.00;101024.28;103942;1285;60901;-32
2024/01/30 06:35:01;;;;;;;18.10;7.20;;;;;;;0.09;100.00;101022.86;103907;1285;60977;-30
2024/01/30 06:37:27;;;;;;;15.30;7.10;;;;;;;0.10;100.00;101017.33;103908;1282;61907;-31
2024/01/30 06:39:52;;;;;;;18.90;7.50;;;;;;;0.13;100.00;101016.95;103861;1291;61726;-32
2024/01/30 06:42:18;;;;;;;18.00;7.10;;;;;;;0.15;100.00;101016.47;103898;1297;62023;-31
2024/01/30 06:44:44;;;;;;;13.50;6.40;;;;;;;0.18;100.00;101015.21;103706;1286;61586;-30
2024/01/30 06:47:10;;;;;;;16.50;6.90;;;;;;;0.22;100.00;101019.60;103802;1286;61713;-30
2024/01/30 06:49:38;;;;;;;18.40;7.30;;;;;;;0.25;100.00;101013.77;103873;1283;61679;-32
2024/01/30 06:52:06;;;;;;;13.60;6.60;;;;;;;0.31;100.00;101015.52;103956;1283;74114;-31
2024/01/30 06:54:33;;;;;;;16.00;7.00;;;;;;;0.38;100.00;101017.05;103850;1285;67945;-33
2024/01/30 06:56:59;;;;;;;18.00;6.60;;;;;;;0.45;100.00;101015.21;103609;1285;71852;-31
2024/01/30 06:59:24;;;;;;;;;;;;;;;0.50;99.98;101017.73;103836;1285;61634;-33
2024/01/30 07:01:50;;;;;;;18.80;7.70;;;;;;;0.55;99.96;101017.45;103839;1301;62034;-31
2024/01/30 07:04:16;;;;;;;15.50;6.80;;;;;;;0.61;99.76;101020.94;103904;1285;61678;-32
2024/01/30 07:06:42;;;;;;;16.80;6.50;;;;;;;0.67;99.48;101018.30;103869;1285;61785;-31
2024/01/30 07:09:08;;;;;;;;;;;;;;;0.74;99.22;101011.38;103940;1285;61657;-30
2024/01/30 07:11:34;;;;;;;14.30;6.30;;;;;;;0.80;99.17;101015.21;103882;1285;61615;-31
2024/01/30 07:13:59;;;;;;;15.80;7.60;;;;;;;0.88;98.79;101017.55;103916;1293;62360;-33
2024/01/30 07:16:25;;;;;;;14.80;6.80;;;;;;;0.92;98.53;101020.83;103916;1294;61628;-34
2024/01/30 07:18:51;;;;;;;17.50;7.10;;;;;;;0.96;98.27;101024.80;103948;1283;73591;-34
2024/01/30 07:21:17;;;;;;;20.50;6.80;;;;;;;1.07;97.76;101023.98;103887;1285;61580;-33
2024/01/30 07:23:43;;;;;;;;;;;;;;;1.14;97.25;101027.36;103865;1282;61592;-32
2024/01/30 07:26:08;;;;;;;18.70;7.50;;;;;;;1.19;97.19;101030.81;103884;1299;61733;-32
2024/01/30 07:28:35;;;;;;;14.40;7.00;;;;;;;1.27;96.73;101031.88;103796;1282;61691;-31
2024/01/30 07:31:01;;;;;;;19.90;7.60;;;;;;;1.34;96.57;101031.23;103859;1285;61702;-31
2024/01/30 07:33:26;;;;;;;;;;;;;;;1.41;96.22;101029.73;103824;1297;61617;-33
2024/01/30 07:35:52;;;;;;;15.60;6.50;;;;;;;1.48;95.81;101028.77;103937;1286;61707;-32
2024/01/30 07:38:18;;;;;;;16.50;7.10;;;;;;;1.57;95.58;101026.25;103828;1294;61714;-30
2024/01/30 07:40:43;;;;;;;18.30;6.50;;;;;;;1.67;95.49;101031.58;103785;1295;61745;-31
2024/01/30 07:43:10;;;;;;;17.10;7.20;;;;;;;1.77;95.18;101031.30;103756;1283;61627;-31
2024/01/30 07:45:37;;;;;;;13.70;6.30;;;;;;;1.89;94.26;101032.44;103882;1285;61612;-30
2024/01/30 07:48:03;;;;;;;15.20;6.70;;;;;;;2.00;94.30;101023.60;103827;1286;68028;-30
2024/01/30 07:50:28;;;;;;;;;;;;;;;2.10;93.46;101024.17;103829;1287;61662;-32
2024/01/30 07:52:55;;;;;;;15.80;6.70;;;;;;;2.24;93.28;101019.71;103946;1295;61718;-32
2024/01/30 07:55:27;;;;;;;13.00;5.80;;;;;;;2.48;93.65;101013.48;103866;1288;61675;-33
2024/01/30 07:57:53;;;;;;;11.20;6.40;;;;;;;2.64;91.94;101016.79;103910;1281;61672;-30
2024/01/30 08:00:21;;;;;;;14.80;6.30;;;;;;;2.89;91.35;101013.17;103873;1285;61698;-32
2024/01/30 08:02:46;;;;;;;14.70;6.40;;;;;;;3.22;91.36;101018.06;103908;1285;68053;-31
2024/01/30 08:05:14;;;;;;;15.20;6.80;;;;;;;3.57;91.25;101016.02;103873;1290;61720;-31
2024/01/30 08:07:42;;;;;;;15.30;6.90;;;;;;;3.95;90.96;101014.66;103896;1285;61717;-33
2024/01/30 08:10:08;;;;;;;14.20;6.60;;;;;;;4.31;89.98;101014.77;103879;1282;61583;-33
2024/01/30 08:12:34;;;;;;;15.70;6.80;;;;;;;4.61;90.25;101021.36;103898;1285;61588;-32
2024/01/30 08:14:59;;;;;;;13.20;7.20;;;;;;;4.80;88.52;101021.48;103840;1285;61711;-29
2024/01/30 08:17:25;;;;;;;13.50;5.70;;;;;;;4.90;86.08;101016.95;103884;1285;62183;-30
2024/01/30 08:19:50;;;;;;;15.40;6.80;;;;;;;4.93;85.07;101017.65;103778;1295;61797;-29
2024/01/30 08:22:16;;;;;;;12.20;6.10;;;;;;;4.86;80.68;101010.73;103840;1298;61617;-32
2024/01/30 08:24:42;;;;;;;15.00;6.50;;;;;;;4.62;80.08;101011.88;103910;1285;61691;-33
2024/01/30 08:27:11;;;;;;;15.30;6.90;;;;;;;4.50;79.42;101011.58;103996;1291;61659;-32
2024/01/30 08:29:37;;;;;;;12.90;5.80;;;;;;;4.49;78.19;101011.64;103867;1282;68050;-30
2024/01/30 08:32:05;;;;;;;14.60;7.30;;;;;;;4.35;78.62;101007.07;103856;1285;61697;-33
2024/01/30 08:34:31;;;;;;;12.40;6.30;;;;;;;4.39;77.36;101009.21;103851;1285;61653;-31
2024/01/30 08:36:56;;;;;;;14.70;5.90;;;;;;;4.41;77.44;101008.36;103857;1285;61704;-31
2024/01/30 08:39:22;;;;;;;15.80;6.60;;;;;;;4.45;75.47;101009.64;103869;1285;61707;-34
2024/01/30 08:41:48;;;;;;;15.80;7.20;;;;;;;4.75;77.57;101009.85;103899;1295;61723;-29
2024/01/30 08:44:13;;;;;;;15.50;6.40;;;;;;;5.16;77.06;101007.49;103882;1285;61698;-30
2024/01/30 08:46:45;;;;;;;13.20;6.30;;;;;;;5.51;75.77;101006.66;103880;1285;61690;-29
2024/01/30 08:49:13;;;;;;;12.90;5.80;;;;;;;5.84;72.15;101004.27;103832;1287;61627;-33
2024/01/30 08:51:39;;;;;;;15.10;5.90;;;;;;;6.02;71.98;101002.48;103823;1283;61645;-32
2024/01/30 08:54:05;;;;;;;12.20;6.70;;;;;;;6.34;71.80;101002.49;103891;1281;61686;-31
2024/01/30 08:56:30;;;;;;;11.50;5.60;;;;;;;6.64;73.02;100995.80;103920;1285;61704;-31
2024/01/30 08:58:56;;;;;;;10.40;4.90;;;;;;;6.93;70.20;101000.26;103816;1299;61697;-32
2024/01/30 09:01:21;;;;;;;11.60;5.30;;;;;;;7.27;68.77;101002.39;103808;1288;61755;-32
2024/01/30 09:03:47;;;;;;;9.50;5.50;;;;;;;7.32;64.65;100996.45;103833;1303;62079;-33
2024/01/30 09:06:12;;;;;;;10.70;5.70;;;;;;;7.35;63.21;100996.49;103894;1286;61714;-34
2024/01/30 09:08:38;;;;;;;14.30;5.50;;;;;;;7.61;65.42;100991.48;103878;1282;74150;-32
2024/01/30 09:11:11;;;;;;;10.80;5.20;;;;;;;7.73;62.44;100993.98;103886;1285;61692;-34
2024/01/30 09:13:37;;;;;;;15.00;5.90;;;;;;;7.81;60.93;100987.35;103839;1285;72158;-32
2024/01/30 09:16:03;;;;;;;11.80;6.00;;;;;;;7.92;60.80;100986.17;103836;1285;61679;-33
2024/01/30 09:18:29;;;;;;;14.80;5.80;;;;;;;8.10;59.44;100983.10;103835;1285;62068;-31
2024/01/30 09:20:54;;;;;;;13.90;6.00;;;;;;;8.15;58.24;100983.02;103805;1294;61696;-33
2024/01/30 09:23:21;;;;;;;16.50;7.10;;;;;;;8.17;56.48;100982.81;103921;1285;61682;-32
2024/01/30 09:25:47;;;;;;;15.90;6.90;;;;;;;8.04;56.08;100984.02;103955;1285;61736;-34
2024/01/30 09:28:14;;;;;;;11.90;5.70;;;;;;;8.25;56.19;100984.95;103855;1285;61768;-33
2024/01/30 09:30:39;;;;;;;12.30;6.00;;;;;;;8.22;56.59;100983.60;103834;1299;61631;-32
2024/01/30 09:33:06;;;;;;;15.20;7.20;;;;;;;8.34;56.62;100981.05;103856;1285;61596;-34
2024/01/30 09:35:32;;;;;;;8.90;5.30;;;;;;;8.46;55.79;100983.94;103914;1285;61701;-31
2024/01/30 09:37:57;;;;;;;13.20;5.80;;;;;;;8.61;56.51;100989.05;103951;1295;61707;-33
2024/01/30 09:40:23;;;;;;;;;;;;;;;9.01;56.17;100981.67;103908;1285;61698;-32
2024/01/30 09:42:50;;;;;;;13.40;5.80;;;;;;;9.14;54.94;100981.36;103876;1301;62223;-32
2024/01/30 09:45:17;;;;;;;9.80;5.40;;;;;;;9.19;54.45;100977.51;103933;1282;61721;-32
2024/01/30 09:47:43;;;;;;;12.80;5.20;;;;;;;9.28;55.48;100981.20;103903;1282;62236;-31
2024/01/30 09:50:10;;;;;;;12.50;6.80;;;;;;;9.43;52.00;100986.35;103936;1285;71867;-32
2024/01/30 09:52:37;;;;;;;9.20;5.00;;;;;;;9.25;51.28;100990.09;103900;1285;68085;-31
2024/01/30 09:55:03;;;;;;;12.20;5.60;;;;;;;9.32;51.10;100989.06;103832;1285;71777;-33
2024/01/30 09:57:29;;;;;;;8.90;4.50;;;;;;;9.44;50.84;100983.94;103877;1285;61634;-33
2024/01/30 09:59:54;;;;;;;8.40;4.80;;;;;;;9.42;50.14;100981.66;103892;1285;61643;-33
2024/01/30 10:02:21;;;;;;;10.00;4.70;;;;;;;9.51;50.01;100984.71;103770;1283;60511;-33
2024/01/30 10:04:50;;;;;;;8.50;5.20;;;;;;;9.38;51.20;100981.18;103555;1281;60584;-34
2024/01/30 10:07:19;;;;;;;10.00;5.30;;;;;;;9.74;50.17;100979.39;103823;1285;70989;-33
2024/01/30 10:09:45;;;;;;;9.80;5.50;;;;;;;9.96;48.97;100974.20;103849;1282;71544;-32
2024/01/30 10:12:11;;;;;;;8.40;4.00;;;;;;;9.80;48.21;100976.11;103868;1285;61745;-34
2024/01/30 10:14:38;;;;;;;8.60;5.10;;;;;;;9.94;47.58;100970.96;103898;1285;61599;-32
2024/01/30 10:17:05;;;;;;;11.80;5.00;;;;;;;9.81;46.25;100970.30;103870;1283;61599;-34
2024/01/30 10:19:31;;;;;;;9.90;5.60;;;;;;;9.54;46.52;100969.20;103601;1283;74100;-32
2024/01/30 10:21:57;;;;;;;8.80;5.00;;;;;;;9.55;47.39;100961.22;103876;1285;61682;-30
2024/01/30 10:24:26;;;;;;;8.60;5.10;;;;;;;9.52;48.02;100954.79;103762;1286;61726;-32
2024/01/30 10:26:53;;;;;;;11.60;5.00;;;;;;;9.71;47.69;100955.89;103851;1282;61691;-31
2024/01/30 10:29:18;;;;;;;9.60;4.90;;;;;;;10.09;46.69;100955.63;103880;1282;61689;-33
2024/01/30 10:31:44;;;;;;;275.50;114.20;;;;;;;9.97;47.15;100958.36;103865;1285;61621;-33
2024/01/30 10:34:09;;;;;;;16.30;10.20;;;;;;;10.26;48.60;100951.77;103928;1285;61749;-33
2024/01/30 10:36:42;;;;;;;13.60;8.40;;;;;;;10.74;48.06;100946.48;103848;1295;61697;-32
2024/01/30 10:39:08;;;;;;;12.50;5.50;;;;;;;10.93;46.63;100943.67;103913;1285;72255;-32
2024/01/30 10:41:40;;;;;;;8.90;5.70;;;;;;;10.98;44.64;100943.46;103689;1288;61784;-31
2024/01/30 10:44:09;;;;;;;8.20;5.20;;;;;;;11.06;44.23;100944.27;103860;1282;61737;-31
2024/01/30 10:46:37;;;;;;;10.70;5.60;;;;;;;10.83;43.30;100948.80;103858;1281;61598;-32
2024/01/30 10:49:02;;;;;;;11.50;5.10;;;;;;;10.71;42.87;100944.98;103866;1285;73547;-31
2024/01/30 10:51:28;;;;;;;9.90;4.90;;;;;;;10.66;42.91;100945.58;103845;1301;61700;-32
2024/01/30 10:53:55;;;;;;;9.80;4.40;;;;;;;10.48;42.59;100945.77;103839;1285;61687;-31
2024/01/30 10:56:21;;;;;;;10.80;4.70;;;;;;;10.42;43.38;100940.19;103924;1285;61593;-35
2024/01/30 10:58:55;;;;;;;6.70;3.90;;;;;;;10.47;43.42;100937.27;103972;1285;61679;-34
2024/01/30 11:01:23;;;;;;;6.50;4.20;;;;;;;10.58;43.28;100939.20;103867;1283;61522;-34
2024/01/30 11:03:51;;;;;;;7.70;4.90;;;;;;;10.67;43.22;100937.16;103908;1282;73003;-34
2024/01/30 11:06:18;;;;;;;10.20;4.80;;;;;;;10.71;43.88;100929.66;103880;1283;67966;-33
2024/01/30 11:08:45;;;;;;;9.00;4.70;;;;;;;10.65;43.17;100924.52;103805;1283;71748;-30
2024/01/30 11:11:11;;;;;;;9.00;4.20;;;;;;;10.89;43.36;100922.77;103793;1282;61634;-34
2024/01/30 11:13:36;;;;;;;7.70;4.50;;;;;;;11.03;43.53;100920.66;103114;1281;1013904;-31
2024/01/30 11:16:03;;;;;;;7.50;4.20;;;;;;;11.27;43.07;100910.43;103898;1286;61694;-31
2024/01/30 11:18:32;;;;;;;7.30;3.70;;;;;;;11.29;41.81;100910.77;101577;1282;1002924;-33
2024/01/30 11:21:01;;;;;;;7.90;4.30;;;;;;;11.17;42.63;100910.13;103806;1287;68044;-32
2024/01/30 11:23:28;;;;;;;7.70;4.40;;;;;;;11.33;42.24;100906.10;103061;1283;1002105;-33
2024/01/30 11:25:54;;;;;;;9.10;4.30;;;;;;;11.45;42.12;100904.72;102340;1284;1002271;-34
2024/01/30 11:28:21;;;;;;;10.20;4.10;;;;;;;11.54;41.16;100897.48;103938;1285;61703;-32
2024/01/30 11:30:47;;;;;;;48.10;10.20;;;;;;;11.40;41.34;100895.30;101652;1282;1004484;-32
2024/01/30 11:33:13;;;;;;;15.20;4.90;;;;;;;11.54;40.99;100892.46;103760;1285;61627;-32
2024/01/30 11:35:41;;;;;;;8.80;4.70;;;;;;;11.64;41.17;100887.05;103057;1282;1002006;-33
2024/01/30 11:38:06;;;;;;;61.00;31.70;;;;;;;11.76;40.88;100884.88;103762;1285;61724;-32
2024/01/30 11:40:33;;;;;;;140.30;92.70;;;;;;;11.88;40.82;100879.42;103029;1281;1002925;-33
2024/01/30 11:43:00;;;;;;;73.30;23.50;;;;;;;12.08;40.74;100875.05;103685;1283;61713;-32
2024/01/30 11:45:26;;;;;;;82.10;20.50;;;;;;;12.23;40.76;100878.07;103626;1282;61577;-32
2024/01/30 11:47:52;;;;;;;33.80;10.10;;;;;;;12.59;40.96;100877.88;103760;1282;74962;-34
2024/01/30 11:50:18;;;;;;;12.40;6.10;;;;;;;12.90;39.80;100874.79;103733;1285;61429;-31
2024/01/30 11:52:44;;;;;;;36.80;12.10;;;;;;;12.65;39.94;100873.18;103746;1283;61515;-31
2024/01/30 11:55:09;;;;;;;41.60;11.90;;;;;;;12.77;40.22;100874.67;103689;1285;61502;-32
2024/01/30 11:57:36;;;;;;;28.10;8.30;;;;;;;12.88;39.26;100872.71;103390;1289;60883;-35
2024/01/30 12:00:09;;;;;;;7.30;3.90;;;;;;;12.96;38.73;100866.03;103767;1281;60974;-31